createdAt,value
2017-12-26T00:01:56.496Z,15.40
2017-12-26T00:04:25.092Z,14.68
2017-12-26T00:06:54.272Z,15.68
2017-12-26T00:09:22.772Z,14.90
2017-12-26T00:11:51.652Z,13.45
2017-12-26T00:14:19.872Z,13.70
2017-12-26T00:16:48.212Z,12.55
2017-12-26T00:19:17.352Z,12.13
2017-12-26T00:21:45.573Z,14.93
2017-12-26T00:24:14.452Z,13.68
2017-12-26T00:26:43.251Z,13.82
2017-12-26T00:29:11.412Z,15.82
2017-12-26T00:31:39.692Z,14.73
2017-12-26T00:34:08.016Z,13.73
2017-12-26T00:36:36.056Z,13.82
2017-12-26T00:39:05.232Z,14.18
2017-12-26T00:41:33.412Z,13.73
2017-12-26T00:44:01.573Z,14.13
2017-12-26T00:46:29.951Z,15.70
2017-12-26T00:48:58.152Z,14.60
2017-12-26T00:51:27.252Z,15.40
2017-12-26T00:53:56.252Z,15.30
2017-12-26T00:56:24.491Z,15.52
2017-12-26T00:58:52.772Z,16.58
2017-12-26T01:01:20.932Z,15.43
2017-12-26T01:03:49.214Z,12.70
2017-12-26T01:06:17.512Z,14.93
2017-12-26T01:08:47.032Z,15.30
2017-12-26T01:11:15.272Z,15.13
2017-12-26T01:13:43.772Z,14.15
2017-12-26T01:16:12.452Z,13.70
2017-12-26T01:18:41.731Z,12.70
2017-12-26T01:21:11.072Z,12.80
2017-12-26T01:23:39.633Z,12.75
2017-12-26T01:26:08.694Z,12.45
2017-12-26T01:28:38.012Z,12.60
2017-12-26T01:31:06.192Z,13.13
2017-12-26T01:33:35.372Z,14.25
2017-12-26T01:36:03.652Z,12.90
2017-12-26T01:38:32.553Z,11.75
2017-12-26T01:41:00.874Z,13.30
2017-12-26T01:43:29.512Z,13.23
2017-12-26T01:46:09.452Z,12.85
2017-12-26T01:48:37.633Z,12.40
2017-12-26T01:51:05.952Z,13.45
2017-12-26T01:53:34.274Z,12.45
2017-12-26T01:56:02.572Z,13.68
2017-12-26T01:58:31.312Z,13.00
2017-12-26T02:00:59.632Z,12.68
2017-12-26T02:03:29.392Z,12.23
2017-12-26T02:05:57.812Z,11.50
2017-12-26T02:08:26.152Z,11.43
2017-12-26T02:10:54.372Z,11.90
2017-12-26T02:13:23.555Z,11.35
2017-12-26T02:15:51.866Z,11.30
2017-12-26T02:18:20.113Z,12.68
2017-12-26T02:20:49.091Z,11.60
2017-12-26T02:23:17.372Z,11.30
2017-12-26T02:25:45.432Z,12.18
2017-12-26T02:28:13.512Z,12.00
2017-12-26T02:30:41.711Z,13.75
2017-12-26T02:33:10.572Z,13.52
2017-12-26T02:35:39.192Z,12.60
2017-12-26T02:38:07.792Z,12.52
2017-12-26T02:40:36.352Z,13.32
2017-12-26T02:43:05.632Z,12.90
2017-12-26T02:45:34.671Z,14.40
2017-12-26T02:48:03.093Z,14.80
2017-12-26T02:50:31.692Z,14.45
2017-12-26T02:53:00.903Z,14.60
2017-12-26T02:55:29.452Z,13.75
2017-12-26T02:57:57.952Z,13.98
2017-12-26T03:00:27.232Z,13.43
2017-12-26T03:02:55.731Z,14.63
2017-12-26T03:05:24.593Z,14.70
2017-12-26T03:07:52.932Z,15.15
2017-12-26T03:10:21.252Z,14.43
2017-12-26T03:12:49.851Z,12.43
2017-12-26T03:15:18.405Z,13.25
2017-12-26T03:17:46.691Z,15.32
2017-12-26T03:20:15.032Z,14.13
2017-12-26T03:22:43.191Z,13.90
2017-12-26T03:25:11.212Z,13.70
2017-12-26T03:27:39.692Z,13.75
2017-12-26T03:30:08.054Z,13.13
2017-12-26T03:32:36.292Z,14.13
2017-12-26T03:35:04.413Z,13.65
2017-12-26T03:37:32.532Z,14.35
2017-12-26T03:40:00.653Z,14.57
2017-12-26T03:42:28.832Z,13.00
2017-12-26T03:44:57.111Z,12.55
2017-12-26T03:47:25.292Z,13.82
2017-12-26T03:49:53.451Z,14.32
2017-12-26T03:52:21.832Z,14.23
2017-12-26T03:54:51.652Z,13.25
2017-12-26T03:57:19.714Z,14.57
2017-12-26T03:59:48.032Z,15.45
2017-12-26T04:02:16.111Z,15.18
2017-12-26T04:04:44.652Z,15.68
2017-12-26T04:07:13.052Z,14.35
2017-12-26T04:09:41.972Z,13.70
2017-12-26T04:12:10.392Z,13.40
2017-12-26T04:14:38.573Z,14.43
2017-12-26T04:17:07.052Z,13.65
2017-12-26T04:19:35.372Z,14.55
2017-12-26T04:22:03.892Z,15.95
2017-12-26T04:24:32.172Z,14.75
2017-12-26T04:27:00.872Z,14.40
2017-12-26T04:29:29.192Z,12.90
2017-12-26T04:31:57.612Z,13.95
2017-12-26T04:34:26.091Z,15.18
2017-12-26T04:36:54.432Z,13.15
2017-12-26T04:39:22.931Z,14.15
2017-12-26T04:41:51.231Z,12.45
2017-12-26T04:44:19.512Z,14.57
2017-12-26T04:46:47.633Z,13.23
2017-12-26T04:49:16.032Z,12.40
2017-12-26T04:51:44.292Z,12.45
2017-12-26T04:54:12.313Z,10.25
2017-12-26T04:56:41.251Z,13.35
2017-12-26T04:59:09.572Z,11.38
2017-12-26T05:01:37.852Z,10.80
2017-12-26T05:04:05.911Z,10.68
2017-12-26T05:06:34.292Z,11.50
2017-12-26T05:09:02.472Z,12.05
2017-12-26T05:11:30.631Z,11.10
2017-12-26T05:13:58.914Z,11.73
2017-12-26T05:16:27.192Z,11.77
2017-12-26T05:18:55.372Z,11.65
2017-12-26T05:21:23.632Z,11.93
2017-12-26T05:23:51.811Z,12.15
2017-12-26T05:26:19.811Z,11.75
2017-12-26T05:28:48.051Z,12.65
2017-12-26T05:31:16.233Z,12.00
2017-12-26T05:33:45.332Z,13.50
2017-12-26T05:36:14.692Z,12.27
2017-12-26T05:38:42.911Z,12.35
2017-12-26T05:41:11.971Z,12.65
2017-12-26T05:43:40.392Z,13.02
2017-12-26T05:46:09.791Z,13.15
2017-12-26T05:48:39.232Z,12.40
2017-12-26T05:51:07.552Z,13.27
2017-12-26T05:53:35.932Z,13.38
2017-12-26T05:56:04.412Z,15.20
2017-12-26T05:58:32.611Z,13.80
2017-12-26T06:01:00.754Z,13.90
2017-12-26T06:03:29.018Z,13.90
2017-12-26T06:05:57.197Z,14.75
2017-12-26T06:08:26.198Z,14.30
2017-12-26T06:10:54.478Z,13.68
2017-12-26T06:13:23.637Z,15.13
2017-12-26T06:15:51.937Z,14.50
2017-12-26T06:18:20.058Z,14.63
2017-12-26T06:20:48.158Z,11.12
2017-12-26T06:23:16.418Z,10.52
2017-12-26T06:25:44.817Z,14.02
2017-12-26T06:28:13.218Z,12.98
2017-12-26T06:30:41.458Z,12.35
2017-12-26T06:33:09.671Z,11.50
2017-12-26T06:35:38.851Z,11.88
2017-12-26T06:38:06.871Z,13.60
2017-12-26T06:40:34.891Z,12.32
2017-12-26T06:43:03.150Z,12.68
2017-12-26T06:45:31.250Z,13.43
2017-12-26T06:47:59.311Z,14.52
2017-12-26T06:50:27.791Z,14.10
2017-12-26T06:52:56.390Z,14.80
2017-12-26T06:55:25.551Z,14.60
2017-12-26T06:57:54.111Z,13.88
2017-12-26T07:00:22.310Z,12.70
2017-12-26T07:02:50.672Z,13.60
2017-12-26T07:05:18.991Z,15.70
2017-12-26T07:07:47.351Z,12.60
2017-12-26T07:10:15.731Z,13.43
2017-12-26T07:12:44.091Z,13.23
2017-12-26T07:15:12.491Z,14.68
2017-12-26T07:17:40.871Z,14.15
2017-12-26T07:20:14.431Z,13.23
2017-12-26T07:22:42.711Z,13.57
2017-12-26T07:25:10.913Z,14.35
2017-12-26T07:27:40.311Z,14.35
2017-12-26T07:30:08.690Z,14.87
2017-12-26T07:32:36.974Z,13.60
2017-12-26T07:35:05.131Z,13.45
2017-12-26T07:37:33.411Z,13.80
2017-12-26T07:40:01.711Z,13.93
2017-12-26T07:42:30.891Z,14.35
2017-12-26T07:45:00.691Z,12.60
2017-12-26T07:47:28.771Z,11.90
2017-12-26T07:49:57.151Z,12.55
2017-12-26T07:52:26.251Z,12.07
2017-12-26T07:54:54.410Z,11.05
2017-12-26T07:57:22.751Z,11.95
2017-12-26T07:59:50.751Z,11.98
2017-12-26T08:02:18.951Z,10.00
2017-12-26T08:04:48.031Z,11.18
2017-12-26T08:07:16.211Z,12.77
2017-12-26T08:09:44.271Z,12.00
2017-12-26T08:12:12.771Z,11.95
2017-12-26T08:14:42.051Z,12.40
2017-12-26T08:17:10.650Z,13.05
2017-12-26T08:19:39.931Z,12.98
2017-12-26T08:22:08.432Z,13.43
2017-12-26T08:24:36.794Z,14.05
2017-12-26T08:27:05.351Z,14.52
2017-12-26T08:29:33.871Z,14.98
2017-12-26T08:32:03.150Z,13.75
2017-12-26T08:34:31.551Z,13.00
2017-12-26T08:37:00.811Z,11.98
2017-12-26T08:39:28.851Z,13.25
2017-12-26T08:41:57.191Z,13.50
2017-12-26T08:44:26.451Z,13.00
2017-12-26T08:46:54.651Z,14.27
2017-12-26T08:49:23.031Z,15.15
2017-12-26T08:51:51.515Z,13.80
2017-12-26T08:54:19.691Z,14.35
2017-12-26T08:56:48.171Z,14.57
2017-12-26T08:59:16.351Z,15.05
2017-12-26T09:01:45.311Z,15.45
2017-12-26T09:04:13.511Z,13.55
2017-12-26T09:06:42.691Z,13.20
2017-12-26T09:09:11.712Z,14.20
2017-12-26T09:11:40.991Z,12.10
2017-12-26T09:14:09.151Z,13.10
2017-12-26T09:16:37.431Z,14.55
2017-12-26T09:19:05.772Z,13.73
2017-12-26T09:21:34.091Z,12.05
2017-12-26T09:24:02.411Z,12.00
2017-12-26T09:26:30.751Z,7.62
2017-12-26T09:28:58.911Z,9.02
2017-12-26T09:31:27.191Z,10.77
2017-12-26T09:33:55.711Z,9.35
2017-12-26T09:36:23.851Z,11.35
2017-12-26T09:38:53.031Z,11.23
2017-12-26T09:41:21.631Z,12.35
2017-12-26T09:43:49.911Z,11.55
2017-12-26T09:46:18.327Z,11.73
2017-12-26T09:48:46.730Z,12.35
2017-12-26T09:51:15.390Z,14.57
2017-12-26T09:53:43.511Z,14.23
2017-12-26T09:56:12.377Z,10.02
2017-12-26T09:58:40.777Z,11.12
2017-12-26T10:01:09.737Z,11.18
2017-12-26T10:03:37.838Z,11.82
2017-12-26T10:06:06.017Z,19.60
2017-12-26T10:08:34.037Z,11.68
2017-12-26T10:11:02.357Z,12.63
2017-12-26T10:13:30.537Z,12.82
2017-12-26T10:15:58.717Z,12.43
2017-12-26T10:18:27.717Z,12.52
2017-12-26T10:20:57.216Z,13.10
2017-12-26T10:23:26.517Z,12.80
2017-12-26T10:25:56.997Z,12.50
2017-12-26T10:28:25.718Z,15.20
2017-12-26T10:30:53.957Z,12.70
2017-12-26T10:33:22.357Z,11.73
2017-12-26T10:35:50.857Z,12.88
2017-12-26T10:38:19.278Z,12.43
2017-12-26T10:40:47.817Z,12.23
2017-12-26T10:43:16.398Z,12.80
2017-12-26T10:45:45.639Z,16.10
2017-12-26T10:48:13.917Z,13.68
2017-12-26T10:50:42.117Z,13.82
2017-12-26T10:53:10.418Z,13.48
2017-12-26T10:55:38.898Z,14.73
2017-12-26T10:58:07.337Z,11.50
2017-12-26T11:00:35.617Z,12.90
2017-12-26T11:03:03.817Z,12.45
2017-12-26T11:05:32.098Z,14.00
2017-12-26T11:08:00.377Z,12.63
2017-12-26T11:10:28.737Z,13.35
2017-12-26T11:12:57.237Z,13.90
2017-12-26T11:15:25.318Z,13.18
2017-12-26T11:17:54.417Z,12.45
2017-12-26T11:20:22.577Z,12.45
2017-12-26T11:22:50.658Z,12.52
2017-12-26T11:25:19.837Z,13.02
2017-12-26T11:27:48.017Z,14.13
2017-12-26T11:30:16.177Z,13.82
2017-12-26T11:32:44.558Z,15.07
2017-12-26T11:35:13.558Z,14.25
2017-12-26T11:37:41.757Z,13.20
2017-12-26T11:40:11.057Z,14.55
2017-12-26T11:42:40.585Z,13.38
2017-12-26T11:45:08.877Z,13.75
2017-12-26T11:47:37.257Z,14.55
2017-12-26T11:50:05.777Z,17.42
2017-12-26T11:52:33.938Z,14.98
2017-12-26T11:55:02.598Z,15.30
2017-12-26T11:57:31.017Z,15.50
2017-12-26T12:00:00.278Z,15.57
2017-12-26T12:02:28.777Z,15.15
2017-12-26T12:04:57.157Z,15.45
2017-12-26T12:07:25.497Z,16.10
2017-12-26T12:09:53.718Z,12.25
2017-12-26T12:12:22.137Z,12.77
2017-12-26T12:14:50.258Z,12.37
2017-12-26T12:17:18.538Z,11.07
2017-12-26T12:19:46.798Z,9.75
2017-12-26T12:22:14.978Z,10.00
2017-12-26T12:24:43.061Z,25.20
2017-12-26T12:27:11.437Z,11.32
2017-12-26T12:29:39.598Z,9.45
2017-12-26T12:32:07.978Z,9.27
2017-12-26T12:34:36.257Z,7.05
2017-12-26T12:37:04.557Z,6.87
2017-12-26T12:39:33.858Z,8.55
2017-12-26T12:42:03.038Z,7.75
2017-12-26T12:44:31.057Z,7.22
2017-12-26T12:46:59.277Z,6.80
2017-12-26T12:49:27.438Z,6.75
2017-12-26T12:51:55.618Z,9.68
2017-12-26T12:54:24.158Z,5.90
2017-12-26T12:56:52.537Z,6.65
2017-12-26T12:59:21.297Z,6.20
2017-12-26T13:01:50.658Z,12.20
2017-12-26T13:04:19.158Z,9.25
2017-12-26T13:06:47.737Z,12.10
2017-12-26T13:09:16.098Z,13.10
2017-12-26T13:11:44.078Z,8.70
2017-12-26T13:14:12.457Z,6.93
2017-12-26T13:16:40.838Z,6.90
2017-12-26T13:19:08.998Z,6.10
2017-12-26T13:21:37.377Z,9.63
2017-12-26T13:24:05.857Z,6.95
2017-12-26T13:26:34.138Z,11.55
2017-12-26T13:29:02.318Z,9.18
2017-12-26T13:31:30.658Z,7.15
2017-12-26T13:33:58.877Z,7.35
2017-12-26T13:36:27.816Z,7.80
2017-12-26T13:38:55.877Z,7.05
2017-12-26T13:41:23.977Z,7.68
2017-12-26T13:43:52.060Z,6.25
2017-12-26T13:46:20.437Z,5.68
2017-12-26T13:48:48.717Z,5.20
2017-12-26T13:51:16.897Z,3.67
2017-12-26T13:53:45.053Z,3.60
2017-12-26T13:56:13.454Z,2.75
2017-12-26T13:58:41.718Z,4.78
2017-12-26T14:01:09.998Z,3.30
2017-12-26T14:03:38.158Z,6.72
2017-12-26T14:06:06.437Z,3.92
2017-12-26T14:08:34.698Z,3.60
2017-12-26T14:11:02.978Z,4.55
2017-12-26T14:13:31.058Z,6.30
2017-12-26T14:15:59.658Z,5.20
2017-12-26T14:18:29.058Z,5.22
2017-12-26T14:20:57.438Z,4.85
2017-12-26T14:23:26.557Z,4.00
2017-12-26T14:25:55.098Z,4.00
2017-12-26T14:28:23.718Z,3.97
2017-12-26T14:30:52.059Z,5.00
2017-12-26T14:33:21.898Z,5.15
2017-12-26T14:35:51.064Z,5.03
2017-12-26T14:38:19.378Z,5.80
2017-12-26T14:40:48.639Z,5.90
2017-12-26T14:43:17.418Z,4.15
2017-12-26T14:45:45.577Z,4.87
2017-12-26T14:48:13.998Z,8.80
2017-12-26T14:50:42.959Z,7.05
2017-12-26T14:53:11.138Z,6.22
2017-12-26T14:55:39.478Z,5.20
2017-12-26T14:58:07.658Z,2.30
2017-12-26T15:00:35.758Z,3.22
2017-12-26T15:03:04.038Z,2.80
2017-12-26T15:05:32.178Z,1.40
2017-12-26T15:08:00.277Z,1.70
2017-12-26T15:10:28.657Z,5.72
2017-12-26T15:12:56.778Z,2.85
2017-12-26T15:15:24.919Z,3.28
2017-12-26T15:17:53.279Z,3.15
2017-12-26T15:20:21.658Z,5.47
2017-12-26T15:22:51.521Z,2.72
2017-12-26T15:25:19.858Z,2.40
2017-12-26T15:27:49.758Z,3.15
2017-12-26T15:30:18.159Z,4.20
2017-12-26T15:32:47.537Z,3.97
2017-12-26T15:35:17.458Z,4.25
2017-12-26T15:37:46.018Z,13.93
2017-12-26T15:40:14.418Z,5.07
2017-12-26T15:42:42.619Z,6.37
2017-12-26T15:45:11.778Z,5.37
2017-12-26T15:47:40.058Z,5.07
2017-12-26T15:50:08.637Z,5.20
2017-12-26T15:52:36.764Z,5.50
2017-12-26T15:55:07.358Z,3.58
2017-12-26T15:57:35.938Z,3.45
2017-12-26T16:00:04.320Z,3.90
2017-12-26T16:02:33.197Z,11.60
2017-12-26T16:05:01.678Z,6.60
2017-12-26T16:07:30.018Z,5.35
2017-12-26T16:09:58.238Z,4.10
2017-12-26T16:12:26.598Z,3.10
2017-12-26T16:14:55.077Z,2.40
2017-12-26T16:17:23.259Z,2.22
2017-12-26T16:19:51.741Z,3.55
2017-12-26T16:22:20.741Z,2.67
2017-12-26T16:24:49.038Z,3.40
2017-12-26T16:27:18.297Z,1.23
2017-12-26T16:29:46.678Z,0.98
2017-12-26T16:32:14.979Z,1.50
2017-12-26T16:34:44.059Z,1.25
2017-12-26T16:37:12.218Z,1.42
2017-12-26T16:39:40.818Z,2.20
2017-12-26T16:42:09.437Z,2.03
2017-12-26T16:44:38.117Z,1.62
2017-12-26T16:47:06.699Z,2.00
2017-12-26T16:49:35.138Z,2.65
2017-12-26T16:52:03.499Z,3.70
2017-12-26T16:54:32.800Z,5.30
2017-12-26T16:57:01.498Z,2.92
2017-12-26T16:59:29.958Z,4.30
2017-12-26T17:01:58.358Z,4.60
2017-12-26T17:04:26.837Z,5.68
2017-12-26T17:06:55.417Z,3.20
2017-12-26T17:09:23.758Z,4.15
2017-12-26T17:11:52.058Z,3.78
2017-12-26T17:14:20.279Z,2.62
2017-12-26T17:16:49.618Z,2.17
2017-12-26T17:19:17.658Z,2.33
2017-12-26T17:21:46.098Z,3.40
2017-12-26T17:24:14.139Z,3.00
2017-12-26T17:26:42.298Z,1.65
2017-12-26T17:29:10.558Z,3.17
2017-12-26T17:31:38.799Z,2.20
2017-12-26T17:34:07.078Z,2.05
2017-12-26T17:36:36.138Z,1.50
2017-12-26T17:39:04.637Z,2.00
2017-12-26T17:41:33.019Z,1.80
2017-12-26T17:44:01.198Z,2.50
2017-12-26T17:46:29.359Z,1.90
2017-12-26T17:48:57.738Z,2.12
2017-12-26T17:51:26.098Z,2.20
2017-12-26T17:53:54.598Z,2.67
2017-12-26T17:56:23.018Z,2.15
2017-12-26T17:58:51.686Z,3.10
2017-12-26T18:01:20.618Z,5.25
2017-12-26T18:03:49.459Z,4.35
2017-12-26T18:06:18.638Z,2.10
2017-12-26T18:08:47.338Z,3.22
2017-12-26T18:11:16.079Z,4.40
2017-12-26T18:13:44.498Z,7.12
2017-12-26T18:16:13.078Z,5.05
2017-12-26T18:18:41.358Z,3.75
2017-12-26T18:21:09.526Z,4.43
2017-12-26T18:23:37.998Z,5.05
2017-12-26T18:26:06.378Z,5.15
2017-12-26T18:31:07.963Z,7.50
2017-12-26T18:33:37.258Z,11.05
2017-12-26T18:36:06.338Z,7.43
2017-12-26T18:38:35.042Z,5.60
2017-12-26T18:41:03.358Z,7.05
2017-12-26T18:43:31.879Z,8.20
2017-12-26T18:46:00.461Z,8.93
2017-12-26T18:48:29.018Z,18.50
2017-12-26T18:50:57.858Z,10.23
2017-12-26T18:53:27.978Z,7.45
2017-12-26T18:55:58.018Z,8.23
2017-12-26T18:58:26.639Z,8.45
2017-12-26T19:00:55.238Z,9.20
2017-12-26T19:03:23.918Z,9.20
2017-12-26T19:05:52.644Z,7.57
2017-12-26T19:08:22.178Z,7.50
2017-12-26T19:10:50.798Z,4.90
2017-12-26T19:13:19.501Z,5.75
2017-12-26T19:15:49.125Z,6.95
2017-12-26T19:18:18.178Z,7.47
2017-12-26T19:20:46.878Z,8.75
2017-12-26T19:23:15.358Z,7.57
2017-12-26T19:25:43.819Z,5.53
2017-12-26T19:28:12.479Z,6.35
2017-12-26T19:30:41.298Z,3.87
2017-12-26T19:33:09.958Z,6.20
2017-12-26T19:35:38.578Z,5.60
2017-12-26T19:38:07.118Z,6.00
2017-12-26T19:40:35.598Z,5.70
2017-12-26T19:43:04.019Z,5.65
2017-12-26T19:45:32.498Z,6.32
2017-12-26T19:48:01.039Z,5.78
2017-12-26T19:50:29.620Z,4.00
2017-12-26T19:52:57.918Z,2.80
2017-12-26T19:55:26.319Z,1.62
2017-12-26T19:57:54.898Z,2.70
2017-12-26T20:00:25.000Z,2.47
2017-12-26T20:02:53.600Z,4.78
2017-12-26T20:05:23.058Z,6.93
2017-12-26T20:07:51.679Z,6.15
2017-12-26T20:10:21.178Z,6.05
2017-12-26T20:12:50.079Z,7.05
2017-12-26T20:15:18.659Z,7.53
2017-12-26T20:17:47.498Z,15.93
2017-12-26T20:20:15.999Z,7.55
2017-12-26T20:22:44.684Z,7.55
2017-12-26T20:25:13.522Z,7.10
2017-12-26T20:27:43.002Z,8.18
2017-12-26T20:30:12.447Z,7.03
2017-12-26T20:32:41.302Z,7.55
2017-12-26T20:35:09.841Z,7.18
2017-12-26T20:37:38.402Z,7.75
2017-12-26T20:40:07.201Z,7.78
2017-12-26T20:42:35.921Z,8.10
2017-12-26T20:45:04.422Z,7.00
2017-12-26T20:47:33.262Z,7.20
2017-12-26T20:50:02.504Z,7.75
2017-12-26T20:52:30.841Z,6.45
2017-12-26T20:54:59.562Z,6.60
2017-12-26T20:57:28.362Z,7.10
2017-12-26T20:59:56.902Z,5.85
2017-12-26T21:02:25.709Z,6.20
2017-12-26T21:04:54.362Z,7.15
2017-12-26T21:07:22.963Z,6.97
2017-12-26T21:09:51.684Z,8.40
2017-12-26T21:12:20.123Z,7.93
2017-12-26T21:14:48.804Z,7.12
2017-12-26T21:17:18.062Z,7.50
2017-12-26T21:19:47.602Z,7.65
2017-12-26T21:22:16.261Z,8.18
2017-12-26T21:24:44.841Z,7.55
2017-12-26T21:27:14.321Z,8.52
2017-12-26T21:29:43.521Z,8.20
2017-12-26T21:32:11.881Z,8.95
2017-12-26T21:34:40.161Z,6.90
2017-12-26T21:37:08.441Z,6.72
2017-12-26T21:39:36.602Z,7.07
2017-12-26T21:42:04.883Z,8.05
2017-12-26T21:44:34.701Z,7.55
2017-12-26T21:47:02.941Z,9.23
2017-12-26T21:49:31.142Z,7.32
2017-12-26T21:51:59.721Z,9.85
2017-12-26T21:54:29.069Z,7.57
2017-12-26T21:56:57.404Z,7.57
2017-12-26T21:59:25.901Z,6.15
2017-12-26T22:01:55.182Z,6.10
2017-12-26T22:04:23.668Z,8.43
2017-12-26T22:06:51.922Z,8.75
2017-12-26T22:09:20.522Z,6.85
2017-12-26T22:11:48.889Z,10.25
2017-12-26T22:14:17.381Z,5.90
2017-12-26T22:16:45.641Z,5.12
2017-12-26T22:19:13.821Z,4.80
2017-12-26T22:21:42.524Z,5.28
2017-12-26T22:24:11.601Z,4.82
2017-12-26T22:26:39.982Z,5.50
2017-12-26T22:29:08.461Z,5.85
2017-12-26T22:31:37.562Z,6.68
2017-12-26T22:34:05.721Z,6.00
2017-12-26T22:36:33.902Z,7.20
2017-12-26T22:39:02.201Z,9.48
2017-12-26T22:41:31.282Z,9.38
2017-12-26T22:43:59.661Z,7.60
2017-12-26T22:46:27.825Z,6.72
2017-12-26T22:48:56.102Z,7.03
2017-12-26T22:51:24.502Z,5.93
2017-12-26T22:53:53.721Z,6.90
2017-12-26T22:56:21.941Z,6.85
2017-12-26T22:58:50.221Z,7.50
2017-12-26T23:01:18.521Z,6.60
2017-12-26T23:03:47.581Z,6.80
2017-12-26T23:06:15.781Z,6.80
2017-12-26T23:08:43.881Z,6.47
2017-12-26T23:11:12.381Z,5.75
2017-12-26T23:13:41.020Z,6.72
2017-12-26T23:16:15.742Z,7.03
2017-12-26T23:18:44.063Z,6.80
2017-12-26T23:21:12.701Z,6.80
2017-12-26T23:23:47.401Z,8.95
2017-12-26T23:26:21.441Z,7.37
2017-12-26T23:28:55.121Z,6.53
2017-12-26T23:31:29.041Z,6.70
2017-12-26T23:34:02.901Z,7.97
2017-12-26T23:36:36.641Z,9.35
2017-12-26T23:39:10.881Z,8.60
2017-12-26T23:41:45.581Z,8.88
2017-12-26T23:44:19.701Z,9.73
2017-12-26T23:46:54.746Z,7.97
2017-12-26T23:49:28.741Z,9.20
2017-12-26T23:52:03.180Z,7.25
2017-12-26T23:54:37.642Z,6.70
2017-12-26T23:57:11.061Z,6.80
2017-12-26T23:59:44.881Z,7.95
